Аэропорт: Гомель. Гомель

ICAO: UMGG

METAR:
2022-06-26 10:30:00
UMGG 261030Z 07007G10MPS CAVOK 28/14 Q1021 NOSIG
METAR:
2022-06-26 04:54:00
TAF UMGG 260454Z 2606/2706 04005MPS 9999 SCT030 TX30/2611Z TN17/2703Z TEMPO 2606/2618 07005G10MPS TEMPO 2621/2703 2000 BR TEMPO 2703/2706 09007MPS